Time;durP1;ratioP1;P1;durP2;ratioP2;P2;SDS_P1;SDS_P2;PMS_P1;PMS_P2;Temp;Humidity;BMP_temperature;BMP_pressure;BME280_temperature;BME280_humidity;BME280_pressure;Samples;Min_cycle;Max_cycle;Signal;HPM_P1;HPM_P2
2022/02/25 00:01:02;;;;;;;6.47;4.70;;;;;;;;;;5093867;28;20237;-67
2022/02/25 00:03:30;;;;;;;4.97;4.57;;;;;;;;;;5094576;28;20688;-66
2022/02/25 00:05:57;;;;;;;7.03;4.20;;;;;;;;;;5094473;28;20201;-67
2022/02/25 00:08:24;;;;;;;6.88;4.78;;;;;;;;;;5094076;28;20298;-67
2022/02/25 00:10:53;;;;;;;4.88;4.35;;;;;;;;;;5093883;28;20249;-67
2022/02/25 00:13:20;;;;;;;6.97;5.25;;;;;;;;;;5093645;28;20196;-67
2022/02/25 00:15:47;;;;;;;7.32;3.83;;;;;;;;;;5093953;28;20222;-67
2022/02/25 00:18:14;;;;;;;5.10;4.70;;;;;;;;;;5093586;28;20668;-67
2022/02/25 00:20:42;;;;;;;3.97;3.67;;;;;;;;;;5093550;28;20202;-66
2022/02/25 00:23:09;;;;;;;5.65;5.07;;;;;;;;;;5093726;28;20252;-67
2022/02/25 00:25:36;;;;;;;4.47;4.07;;;;;;;;;;5094287;28;20225;-67
2022/02/25 00:28:05;;;;;;;4.70;4.30;;;;;;;;;;5093951;28;20198;-66
2022/02/25 00:30:32;;;;;;;4.25;3.85;;;;;;;;;;5093753;28;20282;-67
2022/02/25 00:33:00;;;;;;;4.70;4.30;;;;;;;;;;5093462;28;20194;-66
2022/02/25 00:35:27;;;;;;;5.30;4.53;;;;;;;;;;5093739;28;20190;-66
2022/02/25 00:37:54;;;;;;;4.25;3.95;;;;;;;;;;5093897;28;20222;-66
2022/02/25 00:40:22;;;;;;;7.85;3.92;;;;;;;;;;5093445;28;20194;-67
2022/02/25 00:42:50;;;;;;;5.30;4.72;;;;;;;;;;5093313;28;20304;-66
2022/02/25 00:45:18;;;;;;;5.88;5.18;;;;;;;;;;5093447;28;20233;-66
2022/02/25 00:47:46;;;;;;;6.82;4.25;;;;;;;;;;5093931;28;20190;-68
2022/02/25 00:50:14;;;;;;;5.68;4.00;;;;;;;;;;5093549;28;20208;-66
2022/02/25 00:52:41;;;;;;;6.15;4.40;;;;;;;;;;5093478;28;20704;-67
2022/02/25 00:55:09;;;;;;;7.55;4.10;;;;;;;;;;5093571;28;20285;-67
2022/02/25 00:57:36;;;;;;;6.35;4.63;;;;;;;;;;5093822;28;20194;-67
2022/02/25 01:00:04;;;;;;;8.10;4.70;;;;;;;;;;5094669;28;20580;-67
2022/02/25 01:02:33;;;;;;;6.38;4.07;;;;;;;;;;5093988;28;20222;-67
2022/02/25 01:05:00;;;;;;;6.47;4.50;;;;;;;;;;5094351;28;20197;-66
2022/02/25 01:07:27;;;;;;;5.32;4.50;;;;;;;;;;5094496;28;20194;-67
2022/02/25 01:09:54;;;;;;;10.68;4.60;;;;;;;;;;5094661;28;20287;-66
2022/02/25 01:12:22;;;;;;;6.95;4.38;;;;;;;;;;5098901;28;20268;-67
2022/02/25 01:14:49;;;;;;;6.55;3.60;;;;;;;;;;5098257;28;20230;-67
2022/02/25 01:17:16;;;;;;;5.75;4.32;;;;;;;;;;5097683;28;20280;-67
2022/02/25 01:19:45;;;;;;;8.13;4.15;;;;;;;;;;5098401;28;20555;-67
2022/02/25 01:22:12;;;;;;;8.18;4.85;;;;;;;;;;5098139;28;20215;-66
2022/02/25 01:24:39;;;;;;;6.25;4.07;;;;;;;;;;5098392;28;20225;-67
2022/02/25 01:27:07;;;;;;;6.57;3.97;;;;;;;;;;5097654;28;20284;-67
2022/02/25 01:29:34;;;;;;;6.63;3.50;;;;;;;;;;5097233;28;20230;-67
2022/02/25 01:32:02;;;;;;;6.13;3.83;;;;;;;;;;5097783;28;20197;-67
2022/02/25 01:34:30;;;;;;;5.38;4.10;;;;;;;;;;5097428;28;20243;-67
2022/02/25 01:36:58;;;;;;;4.63;3.55;;;;;;;;;;5097202;28;20262;-67
2022/02/25 01:39:26;;;;;;;9.70;3.60;;;;;;;;;;5097598;28;20290;-67
2022/02/25 01:41:53;;;;;;;17.90;4.03;;;;;;;;;;5096627;28;20669;-67
2022/02/25 01:44:21;;;;;;;12.45;4.18;;;;;;;;;;5097289;28;20285;-67
2022/02/25 01:46:50;;;;;;;6.15;4.15;;;;;;;;;;5096884;28;20202;-67
2022/02/25 01:49:17;;;;;;;3.67;3.35;;;;;;;;;;5096813;28;20712;-67
2022/02/25 01:51:45;;;;;;;7.72;3.65;;;;;;;;;;5096368;28;20197;-67
2022/02/25 01:54:14;;;;;;;5.90;3.28;;;;;;;;;;5096880;28;20224;-67
2022/02/25 01:56:42;;;;;;;9.63;4.97;;;;;;;;;;5096116;28;20672;-67
2022/02/25 01:59:10;;;;;;;6.85;4.13;;;;;;;;;;5096098;28;20197;-68
2022/02/25 02:01:38;;;;;;;8.93;3.97;;;;;;;;;;5096532;28;20643;-66
2022/02/25 02:04:05;;;;;;;9.52;4.28;;;;;;;;;;5096166;28;20271;-67
2022/02/25 02:06:33;;;;;;;13.68;4.25;;;;;;;;;;5095934;28;20647;-67
2022/02/25 02:09:00;;;;;;;8.32;3.78;;;;;;;;;;5096682;28;20225;-67
2022/02/25 02:11:30;;;;;;;6.65;4.07;;;;;;;;;;5096120;28;20226;-67
2022/02/25 02:13:58;;;;;;;7.75;3.25;;;;;;;;;;5096121;28;20186;-68
2022/02/25 02:16:26;;;;;;;8.25;4.32;;;;;;;;;;5095697;28;20715;-67
2022/02/25 02:18:53;;;;;;;4.18;3.78;;;;;;;;;;5096063;28;20541;-66
2022/02/25 02:21:22;;;;;;;7.25;3.88;;;;;;;;;;5095078;28;20195;-67
2022/02/25 02:23:50;;;;;;;9.00;3.83;;;;;;;;;;5095948;28;20789;-66
2022/02/25 02:26:18;;;;;;;5.57;3.70;;;;;;;;;;5095891;28;20191;-67
2022/02/25 02:28:45;;;;;;;7.25;4.10;;;;;;;;;;5095404;28;20647;-67
2022/02/25 02:31:12;;;;;;;4.57;4.10;;;;;;;;;;5096059;28;20301;-66
2022/02/25 02:33:40;;;;;;;5.50;4.28;;;;;;;;;;5095335;28;20239;-66
2022/02/25 02:36:08;;;;;;;6.78;4.95;;;;;;;;;;5095282;28;20228;-67
2022/02/25 02:38:35;;;;;;;10.02;4.70;;;;;;;;;;5095590;28;20197;-66
2022/02/25 02:41:04;;;;;;;10.45;4.47;;;;;;;;;;5095573;28;20194;-67
2022/02/25 02:43:31;;;;;;;9.77;4.40;;;;;;;;;;5095360;28;20271;-67
2022/02/25 02:45:58;;;;;;;8.50;4.20;;;;;;;;;;5095554;28;20618;-67
2022/02/25 02:48:25;;;;;;;3.88;3.40;;;;;;;;;;5095430;28;20628;-67
2022/02/25 02:50:53;;;;;;;9.30;4.80;;;;;;;;;;5095311;28;20230;-68
2022/02/25 02:53:20;;;;;;;6.40;4.07;;;;;;;;;;5095717;28;20324;-67
2022/02/25 02:55:48;;;;;;;11.95;4.28;;;;;;;;;;5095700;28;20270;-67
2022/02/25 02:58:16;;;;;;;8.25;4.00;;;;;;;;;;5094853;28;20198;-67
2022/02/25 03:00:44;;;;;;;7.47;3.97;;;;;;;;;;5095496;28;20252;-66
2022/02/25 03:03:12;;;;;;;4.07;3.65;;;;;;;;;;5094677;28;20219;-67
2022/02/25 03:05:40;;;;;;;4.40;3.47;;;;;;;;;;5095030;28;20221;-66
2022/02/25 03:08:07;;;;;;;9.18;3.70;;;;;;;;;;5095093;28;20198;-67
2022/02/25 03:10:35;;;;;;;7.05;4.22;;;;;;;;;;5094428;28;20271;-67
2022/02/25 03:13:03;;;;;;;6.57;3.65;;;;;;;;;;5094515;28;20202;-66
2022/02/25 03:15:32;;;;;;;8.98;4.15;;;;;;;;;;5094857;28;20243;-68
2022/02/25 03:17:59;;;;;;;6.13;3.88;;;;;;;;;;5094799;28;20290;-66
2022/02/25 03:20:27;;;;;;;7.00;3.97;;;;;;;;;;5094771;28;20548;-67
2022/02/25 03:22:55;;;;;;;4.85;3.83;;;;;;;;;;5094350;28;20302;-67
2022/02/25 03:25:22;;;;;;;6.32;3.22;;;;;;;;;;5094317;28;20205;-67
2022/02/25 03:27:50;;;;;;;5.40;3.85;;;;;;;;;;5094606;28;20282;-66
2022/02/25 03:30:18;;;;;;;4.80;3.03;;;;;;;;;;5094279;28;20195;-67
2022/02/25 03:32:47;;;;;;;6.18;3.60;;;;;;;;;;5093448;28;20204;-67
2022/02/25 03:35:15;;;;;;;7.10;4.25;;;;;;;;;;5094239;28;20293;-67
2022/02/25 03:37:43;;;;;;;6.72;4.07;;;;;;;;;;5094453;28;20311;-67
2022/02/25 03:40:11;;;;;;;9.93;5.18;;;;;;;;;;5094282;28;20607;-67
2022/02/25 03:42:38;;;;;;;4.35;3.40;;;;;;;;;;5093930;28;20198;-67
2022/02/25 03:45:06;;;;;;;7.30;3.50;;;;;;;;;;5093994;28;20256;-67
2022/02/25 03:47:34;;;;;;;6.18;3.38;;;;;;;;;;5095003;28;20194;-66
2022/02/25 03:50:03;;;;;;;14.32;3.90;;;;;;;;;;5094283;28;20200;-66
2022/02/25 03:52:30;;;;;;;7.65;3.47;;;;;;;;;;5093912;28;20304;-67
2022/02/25 03:54:57;;;;;;;6.03;3.83;;;;;;;;;;5093856;28;20655;-67
2022/02/25 03:57:25;;;;;;;4.43;4.22;;;;;;;;;;5094484;28;20237;-67
2022/02/25 03:59:52;;;;;;;2.63;2.40;;;;;;;;;;5094176;28;20191;-67
2022/02/25 04:02:20;;;;;;;7.28;3.53;;;;;;;;;;5093751;28;20287;-66
2022/02/25 04:04:47;;;;;;;7.47;4.32;;;;;;;;;;5094265;28;20225;-67
2022/02/25 04:07:16;;;;;;;12.02;4.28;;;;;;;;;;5094019;28;20290;-66
2022/02/25 04:09:43;;;;;;;7.68;3.25;;;;;;;;;;5093630;28;20198;-67
2022/02/25 04:12:11;;;;;;;5.55;2.70;;;;;;;;;;5094142;28;20226;-66
2022/02/25 04:14:38;;;;;;;8.50;3.05;;;;;;;;;;5093826;28;20684;-66
2022/02/25 04:17:06;;;;;;;4.80;2.97;;;;;;;;;;5093987;28;20200;-66
2022/02/25 04:19:33;;;;;;;9.60;3.17;;;;;;;;;;5093823;28;20200;-67
2022/02/25 04:22:00;;;;;;;7.07;3.40;;;;;;;;;;5093978;28;20203;-68
2022/02/25 04:24:29;;;;;;;4.10;3.33;;;;;;;;;;5093368;28;20309;-68
2022/02/25 04:26:56;;;;;;;12.00;3.42;;;;;;;;;;5093829;28;20277;-66
2022/02/25 04:29:24;;;;;;;5.45;3.13;;;;;;;;;;5093437;28;20702;-67
2022/02/25 04:31:51;;;;;;;5.90;3.40;;;;;;;;;;5094095;28;20193;-66
2022/02/25 04:34:18;;;;;;;8.57;3.58;;;;;;;;;;5093383;28;20647;-66
2022/02/25 04:36:45;;;;;;;6.38;2.92;;;;;;;;;;5093333;28;20642;-65
2022/02/25 04:39:13;;;;;;;3.30;2.63;;;;;;;;;;5093383;28;20229;-67
2022/02/25 04:41:42;;;;;;;5.80;3.95;;;;;;;;;;5093306;28;20205;-66
2022/02/25 04:44:09;;;;;;;7.30;3.15;;;;;;;;;;5094232;28;20214;-66
2022/02/25 04:46:39;;;;;;;5.95;3.50;;;;;;;;;;5097433;28;20286;-66
2022/02/25 04:49:06;;;;;;;7.03;3.47;;;;;;;;;;5097770;28;20297;-66
2022/02/25 04:51:34;;;;;;;6.82;2.83;;;;;;;;;;5097642;28;20198;-66
2022/02/25 04:54:01;;;;;;;7.63;3.55;;;;;;;;;;5097525;28;20197;-65
2022/02/25 04:56:28;;;;;;;12.52;3.22;;;;;;;;;;5097266;28;20218;-66
2022/02/25 04:58:57;;;;;;;3.42;2.80;;;;;;;;;;5097512;28;20282;-65
2022/02/25 05:01:24;;;;;;;4.95;2.80;;;;;;;;;;5097477;28;20193;-66
2022/02/25 05:03:51;;;;;;;6.03;2.97;;;;;;;;;;5097011;28;20214;-67
2022/02/25 05:06:19;;;;;;;5.75;2.70;;;;;;;;;;5097284;28;20198;-66
2022/02/25 05:08:46;;;;;;;7.10;2.80;;;;;;;;;;5097850;28;20282;-65
2022/02/25 05:11:14;;;;;;;3.70;3.28;;;;;;;;;;5097411;28;20225;-67
2022/02/25 05:13:41;;;;;;;7.63;3.35;;;;;;;;;;5097058;28;20289;-67
2022/02/25 05:21:48;;;;;;;11.23;4.10;;;;;;;;;;5096612;28;20194;-66
2022/02/25 05:24:15;;;;;;;4.47;3.80;;;;;;;;;;5096900;28;20218;-66
2022/02/25 05:26:43;;;;;;;9.77;4.97;;;;;;;;;;5096497;28;20203;-66
2022/02/25 05:29:10;;;;;;;7.18;4.18;;;;;;;;;;5097501;28;20207;-66
2022/02/25 05:31:39;;;;;;;6.47;4.00;;;;;;;;;;5096824;28;20199;-67
2022/02/25 05:34:06;;;;;;;13.15;4.13;;;;;;;;;;5096499;28;20312;-66
2022/02/25 05:36:33;;;;;;;6.03;4.00;;;;;;;;;;5096411;28;20555;-66
2022/02/25 05:39:01;;;;;;;6.15;3.72;;;;;;;;;;5096349;28;20199;-66
2022/02/25 05:41:28;;;;;;;8.75;4.53;;;;;;;;;;5096941;28;20769;-66
2022/02/25 05:43:55;;;;;;;7.10;4.20;;;;;;;;;;5096117;28;20217;-67
2022/02/25 05:46:22;;;;;;;6.97;4.95;;;;;;;;;;5097459;28;20281;-66
2022/02/25 05:48:52;;;;;;;9.88;4.40;;;;;;;;;;5096520;28;20622;-66
2022/02/25 05:51:19;;;;;;;7.80;4.20;;;;;;;;;;5096526;28;20608;-66
2022/02/25 05:53:46;;;;;;;11.40;5.35;;;;;;;;;;5096440;28;20205;-66
2022/02/25 05:56:13;;;;;;;15.68;5.10;;;;;;;;;;5095275;28;20659;-67
2022/02/25 05:58:41;;;;;;;11.13;4.72;;;;;;;;;;5096631;28;20287;-66
2022/02/25 06:01:08;;;;;;;7.25;3.65;;;;;;;;;;5096446;28;20194;-67
2022/02/25 06:03:36;;;;;;;6.60;4.00;;;;;;;;;;5096690;28;20263;-66
2022/02/25 06:06:04;;;;;;;6.90;4.50;;;;;;;;;;5095880;28;20655;-66
2022/02/25 06:08:31;;;;;;;8.13;4.45;;;;;;;;;;5095774;28;20224;-68
2022/02/25 06:10:59;;;;;;;6.47;3.90;;;;;;;;;;5095871;28;20223;-67
2022/02/25 06:13:26;;;;;;;6.57;4.32;;;;;;;;;;5096104;28;20205;-67
2022/02/25 06:15:54;;;;;;;6.50;3.70;;;;;;;;;;5095722;28;20284;-67
2022/02/25 06:18:21;;;;;;;3.72;2.72;;;;;;;;;;5095644;28;20203;-68
2022/02/25 06:20:48;;;;;;;8.73;4.47;;;;;;;;;;5095830;28;20663;-67
2022/02/25 06:23:18;;;;;;;8.50;4.82;;;;;;;;;;5093786;28;20283;-68
2022/02/25 06:25:45;;;;;;;9.02;5.00;;;;;;;;;;5094288;28;20198;-67
2022/02/25 06:28:13;;;;;;;8.70;3.42;;;;;;;;;;5095639;28;20300;-71
2022/02/25 06:30:40;;;;;;;10.52;3.58;;;;;;;;;;5095302;28;20190;-66
2022/02/25 06:33:07;;;;;;;12.70;3.55;;;;;;;;;;5095244;28;20285;-66
2022/02/25 06:35:35;;;;;;;8.05;3.47;;;;;;;;;;5095268;28;20289;-66
2022/02/25 06:38:02;;;;;;;10.13;3.25;;;;;;;;;;5095412;28;20226;-66
2022/02/25 06:40:30;;;;;;;14.70;3.65;;;;;;;;;;5095284;28;20203;-66
2022/02/25 06:42:58;;;;;;;5.88;4.53;;;;;;;;;;5095389;28;20231;-66
2022/02/25 06:45:25;;;;;;;9.70;4.38;;;;;;;;;;5095047;28;20233;-67
2022/02/25 06:47:52;;;;;;;9.32;3.75;;;;;;;;;;5095007;28;20229;-67
2022/02/25 06:50:20;;;;;;;8.27;3.65;;;;;;;;;;5095325;28;20232;-65
2022/02/25 06:52:48;;;;;;;3.67;3.13;;;;;;;;;;5095041;28;20661;-65
2022/02/25 06:55:16;;;;;;;8.80;3.92;;;;;;;;;;5094863;28;20224;-66
2022/02/25 06:57:45;;;;;;;7.05;3.85;;;;;;;;;;5095143;28;20245;-66
2022/02/25 07:00:16;;;;;;;5.85;3.90;;;;;;;;;;5095525;28;20306;-66
2022/02/25 07:02:44;;;;;;;8.00;4.10;;;;;;;;;;5095571;28;20544;-66
2022/02/25 07:05:11;;;;;;;7.43;3.60;;;;;;;;;;5094966;28;20630;-65
2022/02/25 07:07:38;;;;;;;6.45;4.03;;;;;;;;;;5094985;28;20195;-66
2022/02/25 07:10:06;;;;;;;9.15;3.50;;;;;;;;;;5094638;28;20629;-67
2022/02/25 07:12:33;;;;;;;16.58;3.88;;;;;;;;;;5095029;28;20627;-66
2022/02/25 07:15:04;;;;;;;8.43;3.28;;;;;;;;;;5094631;28;20214;-66
2022/02/25 07:17:31;;;;;;;10.85;3.40;;;;;;;;;;5094676;28;20213;-66
2022/02/25 07:19:58;;;;;;;15.75;5.18;;;;;;;;;;5094720;28;20220;-66
2022/02/25 07:22:25;;;;;;;10.48;3.55;;;;;;;;;;5094380;28;20200;-66
2022/02/25 07:24:53;;;;;;;6.25;4.43;;;;;;;;;;5094530;28;20372;-66
2022/02/25 07:27:20;;;;;;;9.25;3.75;;;;;;;;;;5094960;28;20230;-66
2022/02/25 07:29:47;;;;;;;6.13;3.00;;;;;;;;;;5094182;28;20285;-66
2022/02/25 07:32:16;;;;;;;10.50;3.63;;;;;;;;;;5094536;28;20283;-66
2022/02/25 07:34:43;;;;;;;9.45;3.85;;;;;;;;;;5094424;28;20289;-66
2022/02/25 07:37:10;;;;;;;18.08;4.20;;;;;;;;;;5094455;28;20301;-67
2022/02/25 07:39:38;;;;;;;3.78;2.38;;;;;;;;;;5094450;28;20232;-67
2022/02/25 07:42:05;;;;;;;11.60;3.50;;;;;;;;;;5094390;28;20679;-66
2022/02/25 07:44:32;;;;;;;16.92;3.40;;;;;;;;;;5094487;28;20646;-66
2022/02/25 07:46:59;;;;;;;10.90;3.08;;;;;;;;;;5094183;28;20251;-66
2022/02/25 07:49:28;;;;;;;8.27;3.55;;;;;;;;;;5094343;28;20281;-66
2022/02/25 07:51:55;;;;;;;4.97;3.28;;;;;;;;;;5094588;28;20225;-66
2022/02/25 07:54:22;;;;;;;5.82;2.83;;;;;;;;;;5094363;28;20278;-66
2022/02/25 07:56:50;;;;;;;9.98;3.63;;;;;;;;;;5093808;28;20197;-67
2022/02/25 07:59:17;;;;;;;12.40;3.53;;;;;;;;;;5094147;28;20584;-67
2022/02/25 08:01:45;;;;;;;9.95;5.78;;;;;;;;;;5093825;28;20285;-66
2022/02/25 08:04:12;;;;;;;7.47;3.47;;;;;;;;;;5093665;28;20548;-67
2022/02/25 08:06:42;;;;;;;11.23;2.80;;;;;;;;;;5094085;28;20617;-67
2022/02/25 08:09:10;;;;;;;15.82;3.30;;;;;;;;;;5094511;28;20247;-66
2022/02/25 08:11:37;;;;;;;11.80;3.28;;;;;;;;;;5093863;28;20227;-66
2022/02/25 08:14:05;;;;;;;9.60;3.55;;;;;;;;;;5093673;28;20229;-66
2022/02/25 08:16:32;;;;;;;6.25;3.50;;;;;;;;;;5094020;28;20189;-66
2022/02/25 08:18:59;;;;;;;7.07;3.55;;;;;;;;;;5093328;28;20200;-66
2022/02/25 08:21:26;;;;;;;9.68;4.38;;;;;;;;;;5093883;28;20226;-65
2022/02/25 08:23:55;;;;;;;9.02;3.15;;;;;;;;;;5093756;28;20607;-68
2022/02/25 08:26:22;;;;;;;7.13;2.95;;;;;;;;;;5094228;28;20222;-67
2022/02/25 08:28:51;;;;;;;11.13;3.80;;;;;;;;;;5093525;28;20209;-67
2022/02/25 08:31:19;;;;;;;17.52;3.78;;;;;;;;;;5094200;28;20206;-66
2022/02/25 08:33:46;;;;;;;9.43;3.03;;;;;;;;;;5093674;28;20239;-66
2022/02/25 08:36:13;;;;;;;4.65;4.20;;;;;;;;;;5093447;28;20632;-67
2022/02/25 08:38:41;;;;;;;12.55;3.80;;;;;;;;;;5093357;28;20198;-67
2022/02/25 08:41:09;;;;;;;7.28;3.55;;;;;;;;;;5093414;28;20195;-66
2022/02/25 08:43:37;;;;;;;14.45;4.32;;;;;;;;;;5093527;28;20738;-66
2022/02/25 08:46:05;;;;;;;9.55;3.70;;;;;;;;;;5093082;28;20259;-66
2022/02/25 08:48:32;;;;;;;5.25;2.97;;;;;;;;;;5093342;28;20194;-67
2022/02/25 08:51:00;;;;;;;12.60;4.85;;;;;;;;;;5093177;28;20679;-67
2022/02/25 08:53:27;;;;;;;7.80;4.70;;;;;;;;;;5093169;28;20643;-67
2022/02/25 08:55:54;;;;;;;14.63;4.10;;;;;;;;;;5093696;28;20198;-67
2022/02/25 08:58:23;;;;;;;10.30;3.97;;;;;;;;;;5093145;28;20206;-66
2022/02/25 09:00:50;;;;;;;9.52;4.63;;;;;;;;;;5093483;28;20200;-66
2022/02/25 09:03:17;;;;;;;6.40;4.20;;;;;;;;;;5093109;28;20190;-66
2022/02/25 09:05:45;;;;;;;6.03;3.92;;;;;;;;;;5092985;28;20224;-66
2022/02/25 09:08:12;;;;;;;8.43;3.63;;;;;;;;;;5093274;28;20232;-67
2022/02/25 09:10:41;;;;;;;13.07;4.65;;;;;;;;;;5093231;28;20226;-66
2022/02/25 09:13:09;;;;;;;5.55;4.22;;;;;;;;;;5094178;28;20240;-67
2022/02/25 09:15:37;;;;;;;12.75;5.38;;;;;;;;;;5094119;28;20230;-66
2022/02/25 09:18:05;;;;;;;9.10;4.72;;;;;;;;;;5092997;28;20664;-67
2022/02/25 09:20:33;;;;;;;9.48;4.85;;;;;;;;;;5092744;28;20201;-67
2022/02/25 09:23:00;;;;;;;12.23;4.32;;;;;;;;;;5093109;28;20189;-66
2022/02/25 09:25:28;;;;;;;15.50;4.20;;;;;;;;;;5092749;28;20227;-66
2022/02/25 09:27:55;;;;;;;5.70;4.30;;;;;;;;;;5093176;28;20651;-66
2022/02/25 09:30:22;;;;;;;12.63;3.50;;;;;;;;;;5093128;28;20242;-66
2022/02/25 09:32:51;;;;;;;13.07;5.45;;;;;;;;;;5095897;28;20230;-66
2022/02/25 09:35:18;;;;;;;10.70;5.03;;;;;;;;;;5096734;28;20623;-66
2022/02/25 09:37:46;;;;;;;12.45;5.10;;;;;;;;;;5097115;28;20200;-65
2022/02/25 09:40:15;;;;;;;14.02;4.68;;;;;;;;;;5096548;28;20601;-66
2022/02/25 09:42:43;;;;;;;10.07;5.47;;;;;;;;;;5096642;28;20244;-66
2022/02/25 09:45:11;;;;;;;8.18;4.38;;;;;;;;;;5096416;28;20212;-66
2022/02/25 09:47:39;;;;;;;9.80;4.55;;;;;;;;;;5096150;28;20724;-66
2022/02/25 09:50:09;;;;;;;15.93;4.75;;;;;;;;;;5096091;28;20280;-66
2022/02/25 09:52:38;;;;;;;13.13;3.88;;;;;;;;;;5096178;28;20183;-66
2022/02/25 09:55:07;;;;;;;15.45;5.15;;;;;;;;;;5096346;28;20212;-66
2022/02/25 09:57:34;;;;;;;8.13;5.13;;;;;;;;;;5096910;28;20203;-65
2022/02/25 10:00:02;;;;;;;9.63;5.00;;;;;;;;;;5096415;28;20251;-65
2022/02/25 10:02:39;;;;;;;8.15;5.00;;;;;;;;;;5096100;28;20191;-65
2022/02/25 10:05:11;;;;;;;16.50;4.57;;;;;;;;;;5096353;28;20212;-67
2022/02/25 10:07:39;;;;;;;10.73;4.80;;;;;;;;;;5096124;28;20560;-66
2022/02/25 10:10:07;;;;;;;11.30;4.38;;;;;;;;;;5095982;28;20192;-65
2022/02/25 10:12:35;;;;;;;12.20;4.32;;;;;;;;;;5096367;28;20231;-65
2022/02/25 10:15:02;;;;;;;5.07;3.20;;;;;;;;;;5095698;28;20247;-66
2022/02/25 10:17:30;;;;;;;12.32;3.30;;;;;;;;;;5095974;28;20192;-66
2022/02/25 10:19:58;;;;;;;15.15;4.90;;;;;;;;;;5095612;28;20193;-65
2022/02/25 10:22:28;;;;;;;16.75;4.10;;;;;;;;;;5096635;28;20201;-66
2022/02/25 10:24:56;;;;;;;15.90;5.15;;;;;;;;;;5096414;28;20219;-66
2022/02/25 10:27:26;;;;;;;9.65;3.70;;;;;;;;;;5095702;28;20198;-67
2022/02/25 10:29:58;;;;;;;14.60;4.32;;;;;;;;;;5095791;28;20227;-66
2022/02/25 10:32:29;;;;;;;9.35;4.15;;;;;;;;;;5096325;28;20270;-65
2022/02/25 10:34:56;;;;;;;8.10;3.78;;;;;;;;;;5095953;28;20205;-66
2022/02/25 10:37:23;;;;;;;5.72;3.88;;;;;;;;;;5095666;28;20596;-65
2022/02/25 10:39:53;;;;;;;21.95;4.57;;;;;;;;;;5095030;28;20218;-65
2022/02/25 10:42:23;;;;;;;10.95;3.92;;;;;;;;;;5095131;28;20667;-65
2022/02/25 10:44:53;;;;;;;10.40;4.25;;;;;;;;;;5094984;28;20191;-66
2022/02/25 10:47:21;;;;;;;13.48;3.42;;;;;;;;;;5095037;28;20192;-66
2022/02/25 10:49:50;;;;;;;12.45;4.70;;;;;;;;;;5095493;28;20190;-67
2022/02/25 10:52:21;;;;;;;6.78;3.13;;;;;;;;;;5094982;28;20200;-66
2022/02/25 10:54:48;;;;;;;20.88;4.50;;;;;;;;;;5095212;28;20549;-66
2022/02/25 10:57:19;;;;;;;16.08;3.80;;;;;;;;;;5094750;28;20282;-66
2022/02/25 10:59:47;;;;;;;8.07;3.40;;;;;;;;;;5095019;28;20206;-66
2022/02/25 11:02:28;;;;;;;15.32;4.70;;;;;;;;;;5095115;28;20716;-66
2022/02/25 11:05:06;;;;;;;10.00;4.30;;;;;;;;;;5094866;28;20277;-67
2022/02/25 11:07:34;;;;;;;9.35;3.78;;;;;;;;;;5094821;28;20206;-65
2022/02/25 11:10:01;;;;;;;7.55;3.78;;;;;;;;;;5094554;28;20669;-66
2022/02/25 11:12:30;;;;;;;9.80;3.95;;;;;;;;;;5095644;28;20227;-66
2022/02/25 11:14:57;;;;;;;12.32;3.90;;;;;;;;;;5094821;28;20289;-66
2022/02/25 11:17:25;;;;;;;7.30;3.38;;;;;;;;;;5094503;28;20646;-66
2022/02/25 11:19:56;;;;;;;9.57;3.78;;;;;;;;;;5094711;28;20205;-65
2022/02/25 11:22:24;;;;;;;11.60;4.15;;;;;;;;;;5094452;28;20188;-65
2022/02/25 11:24:52;;;;;;;5.63;3.40;;;;;;;;;;5094642;28;20198;-67
2022/02/25 11:27:20;;;;;;;9.63;4.50;;;;;;;;;;5094335;28;20283;-66
2022/02/25 11:29:54;;;;;;;10.93;4.40;;;;;;;;;;5094808;28;20198;-66
2022/02/25 11:32:26;;;;;;;12.50;3.72;;;;;;;;;;5095161;28;20233;-67
2022/02/25 11:34:53;;;;;;;10.68;4.25;;;;;;;;;;5095172;28;20267;-66
2022/02/25 11:37:35;;;;;;;9.88;3.30;;;;;;;;;;5094111;28;20253;-66
2022/02/25 11:40:04;;;;;;;8.45;3.38;;;;;;;;;;5094075;28;20205;-66
2022/02/25 11:42:31;;;;;;;8.38;3.10;;;;;;;;;;5094765;28;20202;-65
2022/02/25 11:45:13;;;;;;;7.70;3.80;;;;;;;;;;5094398;28;20222;-66
2022/02/25 11:47:42;;;;;;;12.88;4.30;;;;;;;;;;5081840;28;20747;-67
2022/02/25 11:50:24;;;;;;;12.20;3.83;;;;;;;;;;5093926;28;20711;-67
2022/02/25 11:52:59;;;;;;;6.85;3.50;;;;;;;;;;5093834;28;20289;-67
2022/02/25 11:55:27;;;;;;;13.20;3.58;;;;;;;;;;5093513;28;20624;-66
2022/02/25 11:57:54;;;;;;;9.73;3.03;;;;;;;;;;5094762;28;20603;-66
2022/02/25 12:00:22;;;;;;;13.13;3.17;;;;;;;;;;5094131;28;20240;-67
2022/02/25 12:03:09;;;;;;;11.27;3.92;;;;;;;;;;5094029;28;20194;-67
2022/02/25 12:05:41;;;;;;;6.28;4.57;;;;;;;;;;5093976;28;20260;-67
2022/02/25 12:08:28;;;;;;;12.43;5.60;;;;;;;;;;5094074;28;20191;-67
2022/02/25 12:10:59;;;;;;;9.85;4.53;;;;;;;;;;5094062;28;20229;-65
2022/02/25 12:13:28;;;;;;;11.95;4.72;;;;;;;;;;5093558;28;20666;-65
2022/02/25 12:15:56;;;;;;;8.45;3.38;;;;;;;;;;5093583;28;20256;-65
2022/02/25 12:18:40;;;;;;;9.80;4.35;;;;;;;;;;5094045;28;20192;-66
2022/02/25 12:21:11;;;;;;;10.23;5.00;;;;;;;;;;5093829;28;20197;-67
2022/02/25 12:23:49;;;;;;;7.15;3.33;;;;;;;;;;5093507;28;20271;-69
2022/02/25 12:26:16;;;;;;;12.48;3.58;;;;;;;;;;5093700;28;20317;-66
2022/02/25 12:28:48;;;;;;;10.68;3.95;;;;;;;;;;5093731;28;20667;-68
2022/02/25 12:31:16;;;;;;;6.85;2.85;;;;;;;;;;5093630;28;20225;-68
2022/02/25 12:33:54;;;;;;;7.57;2.40;;;;;;;;;;5093550;28;20677;-68
2022/02/25 12:36:36;;;;;;;6.93;3.10;;;;;;;;;;5084716;28;20282;-68
2022/02/25 12:39:06;;;;;;;7.18;3.67;;;;;;;;;;5073313;28;20632;-68
2022/02/25 12:41:37;;;;;;;6.43;2.40;;;;;;;;;;5073148;28;20287;-69
2022/02/25 12:44:05;;;;;;;14.25;3.03;;;;;;;;;;5073514;28;20608;-68
2022/02/25 12:46:34;;;;;;;7.60;3.05;;;;;;;;;;5072825;28;20232;-68
2022/02/25 12:49:01;;;;;;;6.80;3.28;;;;;;;;;;5073324;28;20203;-69
2022/02/25 12:51:29;;;;;;;2.60;2.03;;;;;;;;;;5073669;28;20199;-70
2022/02/25 12:53:57;;;;;;;7.22;2.05;;;;;;;;;;5073165;28;20213;-68
2022/02/25 12:56:26;;;;;;;7.13;1.50;;;;;;;;;;5073512;28;20232;-67
2022/02/25 12:58:54;;;;;;;3.13;2.08;;;;;;;;;;5073279;28;20283;-68
2022/02/25 13:01:23;;;;;;;9.32;2.53;;;;;;;;;;5072924;28;20226;-68
2022/02/25 13:03:57;;;;;;;4.72;2.38;;;;;;;;;;5077303;28;20187;-67
2022/02/25 13:06:26;;;;;;;6.43;2.85;;;;;;;;;;5096065;28;20206;-68
2022/02/25 13:08:55;;;;;;;7.57;1.90;;;;;;;;;;5097526;28;20201;-68
2022/02/25 13:11:23;;;;;;;3.95;2.55;;;;;;;;;;5096904;28;20241;-68
2022/02/25 13:13:52;;;;;;;6.80;2.30;;;;;;;;;;5096870;28;20195;-68
2022/02/25 13:16:19;;;;;;;4.82;2.90;;;;;;;;;;5097225;28;20197;-68
2022/02/25 13:18:47;;;;;;;7.70;2.53;;;;;;;;;;5097444;28;20201;-68
2022/02/25 13:21:14;;;;;;;14.75;3.03;;;;;;;;;;5097196;28;20282;-68
2022/02/25 13:23:48;;;;;;;8.18;3.50;;;;;;;;;;5097099;28;20605;-68
2022/02/25 13:26:20;;;;;;;8.85;3.00;;;;;;;;;;5096667;28;20204;-69
2022/02/25 13:28:47;;;;;;;12.30;4.13;;;;;;;;;;5097344;28;20333;-68
2022/02/25 13:31:24;;;;;;;4.68;2.75;;;;;;;;;;5096514;28;20231;-69
2022/02/25 13:33:52;;;;;;;7.63;3.40;;;;;;;;;;5097602;28;20187;-68
2022/02/25 13:36:19;;;;;;;4.40;2.40;;;;;;;;;;5096692;28;20229;-67
2022/02/25 13:38:47;;;;;;;9.25;3.33;;;;;;;;;;5096397;28;20676;-68
2022/02/25 13:41:14;;;;;;;7.65;3.13;;;;;;;;;;5096976;28;20199;-68
2022/02/25 13:43:42;;;;;;;6.10;2.70;;;;;;;;;;5096639;28;20200;-69
2022/02/25 13:46:14;;;;;;;11.30;2.67;;;;;;;;;;5096468;28;20226;-69
2022/02/25 13:54:13;;;;;;;5.63;1.90;;;;;;;;;;5096555;28;20178;-68
2022/02/25 13:56:42;;;;;;;5.82;2.20;;;;;;;;;;5097124;28;20195;-67
2022/02/25 13:59:10;;;;;;;8.98;2.30;;;;;;;;;;5096298;28;20196;-67
2022/02/25 14:01:38;;;;;;;12.43;2.83;;;;;;;;;;5096221;28;20223;-67
2022/02/25 14:04:14;;;;;;;14.82;3.03;;;;;;;;;;5095892;28;20289;-68
2022/02/25 14:06:50;;;;;;;4.30;2.30;;;;;;;;;;5096217;28;20687;-67
2022/02/25 14:09:17;;;;;;;9.20;3.05;;;;;;;;;;5096674;28;20278;-68
2022/02/25 14:11:46;;;;;;;5.15;2.60;;;;;;;;;;5096113;28;20230;-68
2022/02/25 14:14:14;;;;;;;17.20;3.78;;;;;;;;;;5096027;28;20614;-68
2022/02/25 14:16:44;;;;;;;2.60;1.83;;;;;;;;;;5095663;28;20239;-67
2022/02/25 14:19:20;;;;;;;8.63;3.00;;;;;;;;;;5096101;28;20650;-69
2022/02/25 14:21:48;;;;;;;9.60;4.70;;;;;;;;;;5096468;28;20227;-67
2022/02/25 14:24:22;;;;;;;5.72;2.40;;;;;;;;;;5095551;28;20234;-68
2022/02/25 14:26:49;;;;;;;6.32;2.65;;;;;;;;;;5095385;28;20311;-69
2022/02/25 14:29:17;;;;;;;8.07;2.70;;;;;;;;;;5095308;28;20287;-68
2022/02/25 14:31:44;;;;;;;5.05;2.17;;;;;;;;;;5095621;28;20289;-68
2022/02/25 14:34:13;;;;;;;9.50;3.75;;;;;;;;;;5095281;28;20195;-68
2022/02/25 14:36:42;;;;;;;5.82;1.60;;;;;;;;;;5095611;28;20209;-68
2022/02/25 14:39:10;;;;;;;8.88;2.28;;;;;;;;;;5095211;28;20196;-68
2022/02/25 14:41:37;;;;;;;4.38;2.70;;;;;;;;;;5095555;28;20196;-69
2022/02/25 14:44:11;;;;;;;2.83;2.22;;;;;;;;;;5095707;28;20200;-68
2022/02/25 14:46:39;;;;;;;5.05;1.92;;;;;;;;;;5095371;28;20303;-67
2022/02/25 14:49:06;;;;;;;4.30;1.90;;;;;;;;;;5095002;28;20252;-69
2022/02/25 14:51:34;;;;;;;3.08;1.60;;;;;;;;;;5095541;28;20195;-69
2022/02/25 14:54:03;;;;;;;5.93;1.98;;;;;;;;;;5095189;28;20203;-68
2022/02/25 14:56:30;;;;;;;7.40;1.60;;;;;;;;;;5095486;28;20289;-68
2022/02/25 14:58:57;;;;;;;4.35;2.15;;;;;;;;;;5095385;28;20283;-68